sensor_id;sensor_type;location;lat;lon;timestamp;P1;durP1;ratioP1;P2;durP2;ratioP2
12816;SDS011;6473;51.552;6.716;2022-07-29T00:00:52;2.17;;;0.98;;
12816;SDS011;6473;51.552;6.716;2022-07-29T00:03:19;1.20;;;1.10;;
12816;SDS011;6473;51.552;6.716;2022-07-29T00:05:46;1.30;;;0.88;;
12816;SDS011;6473;51.552;6.716;2022-07-29T00:08:13;4.32;;;1.10;;
12816;SDS011;6473;51.552;6.716;2022-07-29T00:10:41;2.35;;;1.00;;
12816;SDS011;6473;51.552;6.716;2022-07-29T00:13:08;3.30;;;1.05;;
12816;SDS011;6473;51.552;6.716;2022-07-29T00:15:35;1.98;;;1.05;;
12816;SDS011;6473;51.552;6.716;2022-07-29T00:18:04;1.00;;;0.90;;
12816;SDS011;6473;51.552;6.716;2022-07-29T00:20:31;1.52;;;0.90;;
12816;SDS011;6473;51.552;6.716;2022-07-29T00:22:58;2.05;;;1.25;;
12816;SDS011;6473;51.552;6.716;2022-07-29T00:25:25;1.65;;;1.13;;
12816;SDS011;6473;51.552;6.716;2022-07-29T00:27:52;2.15;;;0.93;;
12816;SDS011;6473;51.552;6.716;2022-07-29T00:30:19;2.92;;;1.10;;
12816;SDS011;6473;51.552;6.716;2022-07-29T00:32:46;2.58;;;1.00;;
12816;SDS011;6473;51.552;6.716;2022-07-29T00:35:15;3.33;;;1.30;;
12816;SDS011;6473;51.552;6.716;2022-07-29T00:38:02;2.97;;;1.05;;
12816;SDS011;6473;51.552;6.716;2022-07-29T00:40:30;3.05;;;0.93;;
12816;SDS011;6473;51.552;6.716;2022-07-29T00:42:57;1.45;;;0.88;;
12816;SDS011;6473;51.552;6.716;2022-07-29T00:45:24;1.40;;;0.98;;
12816;SDS011;6473;51.552;6.716;2022-07-29T00:47:51;2.47;;;1.10;;
12816;SDS011;6473;51.552;6.716;2022-07-29T00:50:19;2.47;;;1.23;;
12816;SDS011;6473;51.552;6.716;2022-07-29T00:52:46;3.22;;;1.08;;
12816;SDS011;6473;51.552;6.716;2022-07-29T00:55:14;3.60;;;1.13;;
12816;SDS011;6473;51.552;6.716;2022-07-29T00:57:42;1.60;;;0.98;;
12816;SDS011;6473;51.552;6.716;2022-07-29T01:00:15;1.95;;;1.13;;
12816;SDS011;6473;51.552;6.716;2022-07-29T01:02:45;3.95;;;1.10;;
12816;SDS011;6473;51.552;6.716;2022-07-29T01:05:13;0.98;;;0.90;;
12816;SDS011;6473;51.552;6.716;2022-07-29T01:07:44;2.40;;;1.27;;
12816;SDS011;6473;51.552;6.716;2022-07-29T01:10:12;2.17;;;1.20;;
12816;SDS011;6473;51.552;6.716;2022-07-29T01:12:40;1.67;;;1.23;;
12816;SDS011;6473;51.552;6.716;2022-07-29T01:15:10;3.65;;;1.27;;
12816;SDS011;6473;51.552;6.716;2022-07-29T01:17:43;2.72;;;1.02;;
12816;SDS011;6473;51.552;6.716;2022-07-29T01:20:18;2.97;;;1.02;;
12816;SDS011;6473;51.552;6.716;2022-07-29T01:22:57;1.92;;;1.02;;
12816;SDS011;6473;51.552;6.716;2022-07-29T01:25:43;1.75;;;1.20;;
12816;SDS011;6473;51.552;6.716;2022-07-29T01:31:39;3.70;;;1.17;;
12816;SDS011;6473;51.552;6.716;2022-07-29T01:34:10;3.13;;;1.10;;
12816;SDS011;6473;51.552;6.716;2022-07-29T01:36:43;1.40;;;1.30;;
12816;SDS011;6473;51.552;6.716;2022-07-29T01:39:14;2.67;;;0.98;;
12816;SDS011;6473;51.552;6.716;2022-07-29T01:41:48;1.20;;;0.93;;
12816;SDS011;6473;51.552;6.716;2022-07-29T01:44:22;3.63;;;1.20;;
12816;SDS011;6473;51.552;6.716;2022-07-29T01:46:58;3.08;;;1.02;;
12816;SDS011;6473;51.552;6.716;2022-07-29T01:49:31;2.95;;;1.00;;
12816;SDS011;6473;51.552;6.716;2022-07-29T01:52:03;2.53;;;1.15;;
12816;SDS011;6473;51.552;6.716;2022-07-29T01:54:35;2.50;;;1.00;;
12816;SDS011;6473;51.552;6.716;2022-07-29T01:57:08;2.78;;;1.10;;
12816;SDS011;6473;51.552;6.716;2022-07-29T01:59:39;3.25;;;1.00;;
12816;SDS011;6473;51.552;6.716;2022-07-29T02:02:09;1.20;;;1.10;;
12816;SDS011;6473;51.552;6.716;2022-07-29T02:04:38;2.67;;;1.05;;
12816;SDS011;6473;51.552;6.716;2022-07-29T02:07:08;2.97;;;1.23;;
12816;SDS011;6473;51.552;6.716;2022-07-29T02:09:43;2.28;;;1.17;;
12816;SDS011;6473;51.552;6.716;2022-07-29T02:12:12;3.10;;;1.13;;
12816;SDS011;6473;51.552;6.716;2022-07-29T02:14:47;3.33;;;1.10;;
12816;SDS011;6473;51.552;6.716;2022-07-29T02:17:18;2.00;;;1.13;;
12816;SDS011;6473;51.552;6.716;2022-07-29T02:19:52;2.03;;;1.00;;
12816;SDS011;6473;51.552;6.716;2022-07-29T02:22:23;3.95;;;1.13;;
12816;SDS011;6473;51.552;6.716;2022-07-29T02:24:51;2.38;;;1.33;;
12816;SDS011;6473;51.552;6.716;2022-07-29T02:27:21;1.25;;;1.15;;
12816;SDS011;6473;51.552;6.716;2022-07-29T02:29:51;2.72;;;1.25;;
12816;SDS011;6473;51.552;6.716;2022-07-29T02:32:19;2.33;;;1.15;;
12816;SDS011;6473;51.552;6.716;2022-07-29T02:34:48;2.97;;;0.98;;
12816;SDS011;6473;51.552;6.716;2022-07-29T02:37:16;4.00;;;1.40;;
12816;SDS011;6473;51.552;6.716;2022-07-29T02:39:44;1.58;;;1.00;;
12816;SDS011;6473;51.552;6.716;2022-07-29T02:42:14;0.90;;;0.90;;
12816;SDS011;6473;51.552;6.716;2022-07-29T02:44:43;5.05;;;1.52;;
12816;SDS011;6473;51.552;6.716;2022-07-29T02:47:13;1.48;;;1.08;;
12816;SDS011;6473;51.552;6.716;2022-07-29T02:49:47;2.47;;;1.13;;
12816;SDS011;6473;51.552;6.716;2022-07-29T02:52:19;2.42;;;1.30;;
12816;SDS011;6473;51.552;6.716;2022-07-29T02:54:51;2.40;;;1.30;;
12816;SDS011;6473;51.552;6.716;2022-07-29T02:57:22;2.63;;;0.90;;
12816;SDS011;6473;51.552;6.716;2022-07-29T02:59:59;2.05;;;1.10;;
12816;SDS011;6473;51.552;6.716;2022-07-29T03:02:33;4.15;;;1.10;;
12816;SDS011;6473;51.552;6.716;2022-07-29T03:05:03;2.85;;;1.13;;
12816;SDS011;6473;51.552;6.716;2022-07-29T03:07:32;1.95;;;1.33;;
12816;SDS011;6473;51.552;6.716;2022-07-29T03:10:01;1.42;;;1.15;;
12816;SDS011;6473;51.552;6.716;2022-07-29T03:12:29;2.55;;;1.20;;
12816;SDS011;6473;51.552;6.716;2022-07-29T03:14:57;2.80;;;1.45;;
12816;SDS011;6473;51.552;6.716;2022-07-29T03:17:27;2.35;;;1.60;;
12816;SDS011;6473;51.552;6.716;2022-07-29T03:19:55;2.60;;;1.85;;
12816;SDS011;6473;51.552;6.716;2022-07-29T03:22:24;4.93;;;2.38;;
12816;SDS011;6473;51.552;6.716;2022-07-29T03:24:51;2.17;;;1.98;;
12816;SDS011;6473;51.552;6.716;2022-07-29T03:27:18;2.35;;;2.00;;
12816;SDS011;6473;51.552;6.716;2022-07-29T03:29:45;2.80;;;1.42;;
12816;SDS011;6473;51.552;6.716;2022-07-29T03:32:12;2.13;;;1.30;;
12816;SDS011;6473;51.552;6.716;2022-07-29T03:34:39;1.40;;;1.30;;
12816;SDS011;6473;51.552;6.716;2022-07-29T03:37:07;3.40;;;1.50;;
12816;SDS011;6473;51.552;6.716;2022-07-29T03:39:36;2.05;;;1.30;;
12816;SDS011;6473;51.552;6.716;2022-07-29T03:42:10;2.63;;;1.20;;
12816;SDS011;6473;51.552;6.716;2022-07-29T03:44:41;1.45;;;1.35;;
12816;SDS011;6473;51.552;6.716;2022-07-29T03:47:10;3.80;;;1.25;;
12816;SDS011;6473;51.552;6.716;2022-07-29T03:49:40;1.75;;;1.10;;
12816;SDS011;6473;51.552;6.716;2022-07-29T03:52:09;3.88;;;1.48;;
12816;SDS011;6473;51.552;6.716;2022-07-29T03:54:37;3.38;;;1.60;;
12816;SDS011;6473;51.552;6.716;2022-07-29T03:57:04;1.52;;;1.42;;
12816;SDS011;6473;51.552;6.716;2022-07-29T03:59:33;2.17;;;1.30;;
12816;SDS011;6473;51.552;6.716;2022-07-29T04:02:00;1.60;;;1.25;;
12816;SDS011;6473;51.552;6.716;2022-07-29T04:04:31;2.78;;;1.20;;
12816;SDS011;6473;51.552;6.716;2022-07-29T04:06:59;3.63;;;1.10;;
12816;SDS011;6473;51.552;6.716;2022-07-29T04:09:28;3.75;;;1.58;;
12816;SDS011;6473;51.552;6.716;2022-07-29T04:11:56;1.85;;;1.30;;
12816;SDS011;6473;51.552;6.716;2022-07-29T04:14:23;1.00;;;1.00;;
12816;SDS011;6473;51.552;6.716;2022-07-29T04:16:50;1.50;;;1.40;;
12816;SDS011;6473;51.552;6.716;2022-07-29T04:19:18;1.98;;;1.25;;
12816;SDS011;6473;51.552;6.716;2022-07-29T04:21:45;4.10;;;2.00;;
12816;SDS011;6473;51.552;6.716;2022-07-29T04:24:12;5.00;;;1.77;;
12816;SDS011;6473;51.552;6.716;2022-07-29T04:26:40;5.28;;;2.10;;
12816;SDS011;6473;51.552;6.716;2022-07-29T04:29:07;4.05;;;1.90;;
12816;SDS011;6473;51.552;6.716;2022-07-29T04:31:34;5.97;;;2.13;;
12816;SDS011;6473;51.552;6.716;2022-07-29T04:34:01;3.90;;;1.88;;
12816;SDS011;6473;51.552;6.716;2022-07-29T04:36:28;2.42;;;1.70;;
12816;SDS011;6473;51.552;6.716;2022-07-29T04:38:55;2.33;;;1.77;;
12816;SDS011;6473;51.552;6.716;2022-07-29T04:41:22;3.42;;;2.00;;
12816;SDS011;6473;51.552;6.716;2022-07-29T04:43:51;2.10;;;1.90;;
12816;SDS011;6473;51.552;6.716;2022-07-29T04:46:18;2.70;;;1.70;;
12816;SDS011;6473;51.552;6.716;2022-07-29T04:48:45;3.58;;;1.90;;
12816;SDS011;6473;51.552;6.716;2022-07-29T04:51:12;3.33;;;1.90;;
12816;SDS011;6473;51.552;6.716;2022-07-29T04:53:39;3.90;;;2.00;;
12816;SDS011;6473;51.552;6.716;2022-07-29T04:56:06;2.92;;;2.03;;
12816;SDS011;6473;51.552;6.716;2022-07-29T04:58:34;2.88;;;2.30;;
12816;SDS011;6473;51.552;6.716;2022-07-29T05:01:02;2.88;;;2.17;;
12816;SDS011;6473;51.552;6.716;2022-07-29T05:03:30;4.20;;;2.22;;
12816;SDS011;6473;51.552;6.716;2022-07-29T05:05:57;4.00;;;2.05;;
12816;SDS011;6473;51.552;6.716;2022-07-29T05:08:24;2.63;;;1.98;;
12816;SDS011;6473;51.552;6.716;2022-07-29T05:10:51;3.35;;;2.25;;
12816;SDS011;6473;51.552;6.716;2022-07-29T05:13:18;3.70;;;2.15;;
12816;SDS011;6473;51.552;6.716;2022-07-29T05:15:47;2.60;;;2.20;;
12816;SDS011;6473;51.552;6.716;2022-07-29T05:18:15;2.53;;;2.33;;
12816;SDS011;6473;51.552;6.716;2022-07-29T05:20:42;3.90;;;2.30;;
12816;SDS011;6473;51.552;6.716;2022-07-29T05:23:09;4.85;;;2.50;;
12816;SDS011;6473;51.552;6.716;2022-07-29T05:25:45;2.35;;;2.15;;
12816;SDS011;6473;51.552;6.716;2022-07-29T05:28:12;2.33;;;2.15;;
12816;SDS011;6473;51.552;6.716;2022-07-29T05:30:40;2.10;;;1.90;;
12816;SDS011;6473;51.552;6.716;2022-07-29T05:33:07;3.70;;;2.45;;
12816;SDS011;6473;51.552;6.716;2022-07-29T05:35:35;2.78;;;2.45;;
12816;SDS011;6473;51.552;6.716;2022-07-29T05:38:03;5.47;;;2.58;;
12816;SDS011;6473;51.552;6.716;2022-07-29T05:40:36;3.45;;;2.50;;
12816;SDS011;6473;51.552;6.716;2022-07-29T05:43:04;2.60;;;2.33;;
12816;SDS011;6473;51.552;6.716;2022-07-29T05:45:31;3.88;;;2.10;;
12816;SDS011;6473;51.552;6.716;2022-07-29T05:47:58;2.45;;;2.35;;
12816;SDS011;6473;51.552;6.716;2022-07-29T05:50:25;4.53;;;2.22;;
12816;SDS011;6473;51.552;6.716;2022-07-29T05:52:53;2.92;;;2.20;;
12816;SDS011;6473;51.552;6.716;2022-07-29T05:55:20;4.40;;;2.55;;
12816;SDS011;6473;51.552;6.716;2022-07-29T05:57:47;2.45;;;2.25;;
12816;SDS011;6473;51.552;6.716;2022-07-29T06:00:15;3.17;;;2.30;;
12816;SDS011;6473;51.552;6.716;2022-07-29T06:02:43;2.65;;;2.45;;
12816;SDS011;6473;51.552;6.716;2022-07-29T06:05:11;3.83;;;2.60;;
12816;SDS011;6473;51.552;6.716;2022-07-29T06:07:39;3.30;;;2.70;;
12816;SDS011;6473;51.552;6.716;2022-07-29T06:10:07;2.50;;;2.30;;
12816;SDS011;6473;51.552;6.716;2022-07-29T06:12:35;3.70;;;2.30;;
12816;SDS011;6473;51.552;6.716;2022-07-29T06:15:03;5.88;;;2.88;;
12816;SDS011;6473;51.552;6.716;2022-07-29T06:17:31;3.55;;;2.78;;
12816;SDS011;6473;51.552;6.716;2022-07-29T06:19:58;4.93;;;2.42;;
12816;SDS011;6473;51.552;6.716;2022-07-29T06:22:25;3.33;;;2.40;;
12816;SDS011;6473;51.552;6.716;2022-07-29T06:24:55;5.05;;;2.42;;
12816;SDS011;6473;51.552;6.716;2022-07-29T06:27:26;2.58;;;2.22;;
12816;SDS011;6473;51.552;6.716;2022-07-29T06:29:53;4.15;;;2.50;;
12816;SDS011;6473;51.552;6.716;2022-07-29T06:32:20;2.80;;;2.42;;
12816;SDS011;6473;51.552;6.716;2022-07-29T06:34:47;3.92;;;2.20;;
12816;SDS011;6473;51.552;6.716;2022-07-29T06:37:14;4.50;;;2.40;;
12816;SDS011;6473;51.552;6.716;2022-07-29T06:39:42;2.67;;;2.47;;
12816;SDS011;6473;51.552;6.716;2022-07-29T06:42:09;3.88;;;2.45;;
12816;SDS011;6473;51.552;6.716;2022-07-29T06:44:38;3.50;;;2.70;;
12816;SDS011;6473;51.552;6.716;2022-07-29T06:47:05;5.10;;;2.60;;
12816;SDS011;6473;51.552;6.716;2022-07-29T06:49:32;3.15;;;2.22;;
12816;SDS011;6473;51.552;6.716;2022-07-29T06:51:59;2.63;;;2.42;;
12816;SDS011;6473;51.552;6.716;2022-07-29T06:54:26;2.60;;;2.33;;
12816;SDS011;6473;51.552;6.716;2022-07-29T06:56:52;3.05;;;2.40;;
12816;SDS011;6473;51.552;6.716;2022-07-29T06:59:19;3.70;;;2.38;;
12816;SDS011;6473;51.552;6.716;2022-07-29T07:01:48;2.38;;;2.17;;
12816;SDS011;6473;51.552;6.716;2022-07-29T07:04:15;2.50;;;2.30;;
12816;SDS011;6473;51.552;6.716;2022-07-29T07:06:42;3.72;;;2.17;;
12816;SDS011;6473;51.552;6.716;2022-07-29T07:09:09;7.40;;;3.03;;
12816;SDS011;6473;51.552;6.716;2022-07-29T07:11:36;3.20;;;2.90;;
12816;SDS011;6473;51.552;6.716;2022-07-29T07:14:03;3.50;;;2.67;;
12816;SDS011;6473;51.552;6.716;2022-07-29T07:16:31;5.38;;;3.13;;
12816;SDS011;6473;51.552;6.716;2022-07-29T07:18:59;3.17;;;2.80;;
12816;SDS011;6473;51.552;6.716;2022-07-29T07:21:26;2.97;;;2.47;;
12816;SDS011;6473;51.552;6.716;2022-07-29T07:23:54;4.10;;;3.00;;
12816;SDS011;6473;51.552;6.716;2022-07-29T07:26:21;2.97;;;2.72;;
12816;SDS011;6473;51.552;6.716;2022-07-29T07:28:47;3.03;;;2.67;;
12816;SDS011;6473;51.552;6.716;2022-07-29T07:31:14;3.15;;;2.70;;
12816;SDS011;6473;51.552;6.716;2022-07-29T07:33:44;3.60;;;2.67;;
12816;SDS011;6473;51.552;6.716;2022-07-29T07:36:14;2.85;;;2.65;;
12816;SDS011;6473;51.552;6.716;2022-07-29T07:38:41;3.90;;;2.80;;
12816;SDS011;6473;51.552;6.716;2022-07-29T07:41:09;3.85;;;2.80;;
12816;SDS011;6473;51.552;6.716;2022-07-29T07:43:36;4.78;;;2.75;;
12816;SDS011;6473;51.552;6.716;2022-07-29T07:46:03;3.67;;;2.72;;
12816;SDS011;6473;51.552;6.716;2022-07-29T07:48:30;5.93;;;2.38;;
12816;SDS011;6473;51.552;6.716;2022-07-29T07:50:57;6.05;;;2.70;;
12816;SDS011;6473;51.552;6.716;2022-07-29T07:53:26;5.03;;;2.67;;
12816;SDS011;6473;51.552;6.716;2022-07-29T07:55:55;4.53;;;2.70;;
12816;SDS011;6473;51.552;6.716;2022-07-29T07:58:21;5.72;;;3.03;;
12816;SDS011;6473;51.552;6.716;2022-07-29T08:00:48;3.90;;;2.90;;
12816;SDS011;6473;51.552;6.716;2022-07-29T08:06:57;4.00;;;3.00;;
12816;SDS011;6473;51.552;6.716;2022-07-29T08:09:31;7.30;;;3.40;;
12816;SDS011;6473;51.552;6.716;2022-07-29T08:11:59;5.05;;;3.00;;
12816;SDS011;6473;51.552;6.716;2022-07-29T08:14:28;7.32;;;3.40;;
12816;SDS011;6473;51.552;6.716;2022-07-29T08:16:56;4.03;;;3.15;;
12816;SDS011;6473;51.552;6.716;2022-07-29T08:19:23;8.02;;;3.10;;
12816;SDS011;6473;51.552;6.716;2022-07-29T08:21:52;6.90;;;3.08;;
12816;SDS011;6473;51.552;6.716;2022-07-29T08:24:19;4.35;;;3.08;;
12816;SDS011;6473;51.552;6.716;2022-07-29T08:27:06;3.75;;;3.40;;
12816;SDS011;6473;51.552;6.716;2022-07-29T08:29:33;4.63;;;2.78;;
12816;SDS011;6473;51.552;6.716;2022-07-29T08:32:01;5.30;;;2.85;;
12816;SDS011;6473;51.552;6.716;2022-07-29T08:34:28;4.65;;;3.42;;
12816;SDS011;6473;51.552;6.716;2022-07-29T08:36:56;5.03;;;3.13;;
12816;SDS011;6473;51.552;6.716;2022-07-29T08:39:23;4.70;;;3.47;;
12816;SDS011;6473;51.552;6.716;2022-07-29T08:41:51;4.32;;;3.55;;
12816;SDS011;6473;51.552;6.716;2022-07-29T08:44:19;3.83;;;3.53;;
12816;SDS011;6473;51.552;6.716;2022-07-29T08:46:47;4.88;;;3.60;;
12816;SDS011;6473;51.552;6.716;2022-07-29T08:49:15;4.10;;;3.33;;
12816;SDS011;6473;51.552;6.716;2022-07-29T08:51:42;4.85;;;4.05;;
12816;SDS011;6473;51.552;6.716;2022-07-29T08:54:09;4.45;;;3.72;;
12816;SDS011;6473;51.552;6.716;2022-07-29T08:56:40;4.63;;;4.13;;
12816;SDS011;6473;51.552;6.716;2022-07-29T08:59:07;5.57;;;3.67;;
12816;SDS011;6473;51.552;6.716;2022-07-29T09:01:37;5.45;;;3.70;;
12816;SDS011;6473;51.552;6.716;2022-07-29T09:04:05;6.32;;;3.88;;
12816;SDS011;6473;51.552;6.716;2022-07-29T09:06:37;4.68;;;3.67;;
12816;SDS011;6473;51.552;6.716;2022-07-29T09:09:09;4.97;;;3.58;;
12816;SDS011;6473;51.552;6.716;2022-07-29T09:11:37;5.07;;;3.63;;
12816;SDS011;6473;51.552;6.716;2022-07-29T09:14:04;6.38;;;3.80;;
12816;SDS011;6473;51.552;6.716;2022-07-29T09:19:22;3.95;;;3.65;;
12816;SDS011;6473;51.552;6.716;2022-07-29T09:21:51;4.22;;;3.83;;
12816;SDS011;6473;51.552;6.716;2022-07-29T09:24:38;5.90;;;3.80;;
12816;SDS011;6473;51.552;6.716;2022-07-29T09:27:08;3.47;;;3.17;;
12816;SDS011;6473;51.552;6.716;2022-07-29T09:29:37;5.32;;;3.92;;
12816;SDS011;6473;51.552;6.716;2022-07-29T09:32:08;4.45;;;3.80;;
12816;SDS011;6473;51.552;6.716;2022-07-29T09:34:36;4.90;;;3.47;;
12816;SDS011;6473;51.552;6.716;2022-07-29T09:37:04;5.80;;;3.15;;
12816;SDS011;6473;51.552;6.716;2022-07-29T09:39:33;4.28;;;3.38;;
12816;SDS011;6473;51.552;6.716;2022-07-29T09:42:10;3.42;;;3.13;;
12816;SDS011;6473;51.552;6.716;2022-07-29T09:44:47;3.50;;;3.20;;
12816;SDS011;6473;51.552;6.716;2022-07-29T09:47:17;3.85;;;3.55;;
12816;SDS011;6473;51.552;6.716;2022-07-29T09:49:51;6.95;;;3.40;;
12816;SDS011;6473;51.552;6.716;2022-07-29T09:52:20;3.92;;;3.08;;
12816;SDS011;6473;51.552;6.716;2022-07-29T09:54:48;3.55;;;3.05;;
12816;SDS011;6473;51.552;6.716;2022-07-29T09:57:27;3.97;;;3.15;;
12816;SDS011;6473;51.552;6.716;2022-07-29T09:59:58;4.63;;;2.72;;
12816;SDS011;6473;51.552;6.716;2022-07-29T10:02:31;5.72;;;2.58;;
12816;SDS011;6473;51.552;6.716;2022-07-29T10:05:00;3.10;;;2.80;;
12816;SDS011;6473;51.552;6.716;2022-07-29T10:07:42;3.88;;;2.70;;
12816;SDS011;6473;51.552;6.716;2022-07-29T10:10:37;3.08;;;2.40;;
12816;SDS011;6473;51.552;6.716;2022-07-29T10:13:06;4.35;;;2.53;;
12816;SDS011;6473;51.552;6.716;2022-07-29T10:15:35;3.03;;;2.40;;
12816;SDS011;6473;51.552;6.716;2022-07-29T10:18:07;2.53;;;2.15;;
12816;SDS011;6473;51.552;6.716;2022-07-29T10:21:00;2.83;;;2.53;;
12816;SDS011;6473;51.552;6.716;2022-07-29T10:23:30;4.40;;;2.67;;
12816;SDS011;6473;51.552;6.716;2022-07-29T10:25:58;3.75;;;2.95;;
12816;SDS011;6473;51.552;6.716;2022-07-29T10:28:26;5.93;;;2.97;;
12816;SDS011;6473;51.552;6.716;2022-07-29T10:30:59;3.22;;;2.58;;
12816;SDS011;6473;51.552;6.716;2022-07-29T10:33:41;5.40;;;2.53;;
12816;SDS011;6473;51.552;6.716;2022-07-29T10:36:24;3.53;;;2.95;;
12816;SDS011;6473;51.552;6.716;2022-07-29T10:39:04;3.30;;;2.80;;
12816;SDS011;6473;51.552;6.716;2022-07-29T10:42:06;6.07;;;3.35;;
12816;SDS011;6473;51.552;6.716;2022-07-29T10:44:40;5.60;;;3.47;;
12816;SDS011;6473;51.552;6.716;2022-07-29T10:47:18;3.33;;;3.03;;
12816;SDS011;6473;51.552;6.716;2022-07-29T10:49:56;4.38;;;2.75;;
12816;SDS011;6473;51.552;6.716;2022-07-29T10:52:24;4.20;;;2.97;;
12816;SDS011;6473;51.552;6.716;2022-07-29T10:55:30;5.55;;;3.35;;
12816;SDS011;6473;51.552;6.716;2022-07-29T10:58:11;6.28;;;3.47;;
12816;SDS011;6473;51.552;6.716;2022-07-29T11:00:42;4.13;;;3.20;;
12816;SDS011;6473;51.552;6.716;2022-07-29T11:03:10;4.35;;;3.30;;
12816;SDS011;6473;51.552;6.716;2022-07-29T11:06:10;4.38;;;3.80;;
12816;SDS011;6473;51.552;6.716;2022-07-29T11:08:38;5.57;;;4.68;;
12816;SDS011;6473;51.552;6.716;2022-07-29T11:13:57;4.80;;;3.55;;
12816;SDS011;6473;51.552;6.716;2022-07-29T11:16:24;5.30;;;3.50;;
12816;SDS011;6473;51.552;6.716;2022-07-29T11:22:09;4.25;;;3.03;;
12816;SDS011;6473;51.552;6.716;2022-07-29T11:24:37;3.97;;;3.17;;
12816;SDS011;6473;51.552;6.716;2022-07-29T11:27:09;3.63;;;3.20;;
12816;SDS011;6473;51.552;6.716;2022-07-29T11:29:50;5.43;;;3.60;;
12816;SDS011;6473;51.552;6.716;2022-07-29T11:32:22;4.18;;;3.08;;
12816;SDS011;6473;51.552;6.716;2022-07-29T11:37:43;4.82;;;2.97;;
12816;SDS011;6473;51.552;6.716;2022-07-29T11:40:12;4.32;;;2.40;;
12816;SDS011;6473;51.552;6.716;2022-07-29T11:42:47;3.45;;;3.00;;
12816;SDS011;6473;51.552;6.716;2022-07-29T11:45:24;3.10;;;2.80;;
12816;SDS011;6473;51.552;6.716;2022-07-29T11:48:15;3.92;;;2.90;;
12816;SDS011;6473;51.552;6.716;2022-07-29T11:50:46;3.15;;;2.85;;
12816;SDS011;6473;51.552;6.716;2022-07-29T11:53:16;5.20;;;2.92;;
12816;SDS011;6473;51.552;6.716;2022-07-29T11:55:43;3.50;;;2.95;;
12816;SDS011;6473;51.552;6.716;2022-07-29T11:58:10;4.38;;;2.70;;
12816;SDS011;6473;51.552;6.716;2022-07-29T12:00:48;3.03;;;2.72;;
12816;SDS011;6473;51.552;6.716;2022-07-29T12:03:23;3.38;;;2.50;;
12816;SDS011;6473;51.552;6.716;2022-07-29T12:05:53;4.70;;;2.67;;
12816;SDS011;6473;51.552;6.716;2022-07-29T12:11:17;2.95;;;2.72;;
12816;SDS011;6473;51.552;6.716;2022-07-29T12:13:45;4.15;;;3.10;;
12816;SDS011;6473;51.552;6.716;2022-07-29T12:16:12;4.70;;;3.00;;
12816;SDS011;6473;51.552;6.716;2022-07-29T12:18:40;4.85;;;2.72;;
12816;SDS011;6473;51.552;6.716;2022-07-29T12:21:07;4.05;;;2.72;;
12816;SDS011;6473;51.552;6.716;2022-07-29T12:23:34;3.17;;;2.75;;
12816;SDS011;6473;51.552;6.716;2022-07-29T12:26:16;5.72;;;2.88;;
12816;SDS011;6473;51.552;6.716;2022-07-29T12:28:43;3.78;;;3.05;;
12816;SDS011;6473;51.552;6.716;2022-07-29T12:31:12;6.75;;;3.00;;
12816;SDS011;6473;51.552;6.716;2022-07-29T12:33:40;4.28;;;3.88;;
12816;SDS011;6473;51.552;6.716;2022-07-29T12:36:18;3.85;;;2.70;;
12816;SDS011;6473;51.552;6.716;2022-07-29T12:38:45;5.10;;;2.97;;
12816;SDS011;6473;51.552;6.716;2022-07-29T12:41:12;3.78;;;3.08;;
12816;SDS011;6473;51.552;6.716;2022-07-29T12:43:49;4.78;;;3.40;;
12816;SDS011;6473;51.552;6.716;2022-07-29T12:46:19;3.75;;;2.90;;
12816;SDS011;6473;51.552;6.716;2022-07-29T12:48:49;3.13;;;2.83;;
12816;SDS011;6473;51.552;6.716;2022-07-29T12:51:28;4.03;;;3.15;;
12816;SDS011;6473;51.552;6.716;2022-07-29T12:54:03;3.30;;;3.00;;
12816;SDS011;6473;51.552;6.716;2022-07-29T12:56:36;3.83;;;3.25;;
12816;SDS011;6473;51.552;6.716;2022-07-29T12:59:22;3.45;;;3.15;;
12816;SDS011;6473;51.552;6.716;2022-07-29T13:01:51;6.25;;;4.07;;
12816;SDS011;6473;51.552;6.716;2022-07-29T13:04:25;4.85;;;4.10;;
12816;SDS011;6473;51.552;6.716;2022-07-29T13:06:58;4.55;;;4.15;;
12816;SDS011;6473;51.552;6.716;2022-07-29T13:09:36;3.45;;;3.15;;
12816;SDS011;6473;51.552;6.716;2022-07-29T13:12:05;6.47;;;4.30;;
12816;SDS011;6473;51.552;6.716;2022-07-29T13:14:36;4.43;;;3.47;;
12816;SDS011;6473;51.552;6.716;2022-07-29T13:17:06;4.07;;;3.10;;
12816;SDS011;6473;51.552;6.716;2022-07-29T13:19:35;3.35;;;2.90;;
12816;SDS011;6473;51.552;6.716;2022-07-29T13:22:05;4.25;;;2.40;;
12816;SDS011;6473;51.552;6.716;2022-07-29T13:24:33;4.78;;;2.83;;
12816;SDS011;6473;51.552;6.716;2022-07-29T13:27:00;4.35;;;3.08;;
12816;SDS011;6473;51.552;6.716;2022-07-29T13:29:30;5.43;;;2.60;;
12816;SDS011;6473;51.552;6.716;2022-07-29T13:35:13;2.45;;;2.25;;
12816;SDS011;6473;51.552;6.716;2022-07-29T13:37:40;4.45;;;2.47;;
12816;SDS011;6473;51.552;6.716;2022-07-29T13:40:08;3.85;;;2.20;;
12816;SDS011;6473;51.552;6.716;2022-07-29T13:42:36;3.67;;;2.50;;
12816;SDS011;6473;51.552;6.716;2022-07-29T13:45:04;2.80;;;2.15;;
12816;SDS011;6473;51.552;6.716;2022-07-29T13:50:43;6.38;;;2.47;;
12816;SDS011;6473;51.552;6.716;2022-07-29T13:53:10;4.90;;;2.70;;
12816;SDS011;6473;51.552;6.716;2022-07-29T13:55:38;4.32;;;2.50;;
12816;SDS011;6473;51.552;6.716;2022-07-29T13:58:31;3.15;;;2.05;;
12816;SDS011;6473;51.552;6.716;2022-07-29T14:00:58;3.20;;;1.98;;
12816;SDS011;6473;51.552;6.716;2022-07-29T14:03:27;2.28;;;2.08;;
12816;SDS011;6473;51.552;6.716;2022-07-29T14:05:54;2.78;;;2.10;;
12816;SDS011;6473;51.552;6.716;2022-07-29T14:08:22;2.97;;;2.25;;
12816;SDS011;6473;51.552;6.716;2022-07-29T14:11:03;3.75;;;2.30;;
12816;SDS011;6473;51.552;6.716;2022-07-29T14:13:30;3.03;;;2.28;;
12816;SDS011;6473;51.552;6.716;2022-07-29T14:15:57;4.07;;;1.92;;
12816;SDS011;6473;51.552;6.716;2022-07-29T14:18:35;3.67;;;1.95;;
12816;SDS011;6473;51.552;6.716;2022-07-29T14:21:03;2.17;;;1.67;;
12816;SDS011;6473;51.552;6.716;2022-07-29T14:23:31;2.83;;;1.83;;
12816;SDS011;6473;51.552;6.716;2022-07-29T14:26:01;2.65;;;1.77;;
12816;SDS011;6473;51.552;6.716;2022-07-29T14:28:28;3.10;;;1.50;;
12816;SDS011;6473;51.552;6.716;2022-07-29T14:30:56;1.77;;;1.63;;
12816;SDS011;6473;51.552;6.716;2022-07-29T14:33:23;3.67;;;1.83;;
12816;SDS011;6473;51.552;6.716;2022-07-29T14:35:51;2.70;;;1.70;;
12816;SDS011;6473;51.552;6.716;2022-07-29T14:38:18;2.67;;;1.70;;
12816;SDS011;6473;51.552;6.716;2022-07-29T14:41:12;3.13;;;1.65;;
12816;SDS011;6473;51.552;6.716;2022-07-29T14:43:39;2.33;;;1.60;;
12816;SDS011;6473;51.552;6.716;2022-07-29T14:46:06;3.50;;;2.08;;
12816;SDS011;6473;51.552;6.716;2022-07-29T14:49:20;4.22;;;1.70;;
12816;SDS011;6473;51.552;6.716;2022-07-29T14:51:39;3.03;;;1.58;;
12816;SDS011;6473;51.552;6.716;2022-07-29T14:54:06;3.63;;;2.00;;
12816;SDS011;6473;51.552;6.716;2022-07-29T14:56:33;3.53;;;2.10;;
12816;SDS011;6473;51.552;6.716;2022-07-29T14:59:00;3.90;;;1.58;;
12816;SDS011;6473;51.552;6.716;2022-07-29T15:01:34;2.85;;;1.73;;
12816;SDS011;6473;51.552;6.716;2022-07-29T15:04:01;2.80;;;1.48;;
12816;SDS011;6473;51.552;6.716;2022-07-29T15:06:28;1.95;;;1.67;;
12816;SDS011;6473;51.552;6.716;2022-07-29T15:08:56;3.42;;;1.67;;
12816;SDS011;6473;51.552;6.716;2022-07-29T15:11:23;2.45;;;2.05;;
12816;SDS011;6473;51.552;6.716;2022-07-29T15:13:51;6.15;;;2.03;;
12816;SDS011;6473;51.552;6.716;2022-07-29T15:16:24;4.15;;;1.70;;
12816;SDS011;6473;51.552;6.716;2022-07-29T15:18:51;5.05;;;2.28;;
12816;SDS011;6473;51.552;6.716;2022-07-29T15:21:18;2.63;;;1.73;;
12816;SDS011;6473;51.552;6.716;2022-07-29T15:23:45;3.95;;;2.38;;
12816;SDS011;6473;51.552;6.716;2022-07-29T15:26:13;3.35;;;1.67;;
12816;SDS011;6473;51.552;6.716;2022-07-29T15:28:48;2.33;;;1.70;;
12816;SDS011;6473;51.552;6.716;2022-07-29T15:31:19;1.80;;;1.70;;
12816;SDS011;6473;51.552;6.716;2022-07-29T15:34:10;2.53;;;1.90;;
12816;SDS011;6473;51.552;6.716;2022-07-29T15:36:40;2.42;;;1.73;;
12816;SDS011;6473;51.552;6.716;2022-07-29T15:39:10;4.55;;;1.75;;
12816;SDS011;6473;51.552;6.716;2022-07-29T15:41:42;2.15;;;1.70;;
12816;SDS011;6473;51.552;6.716;2022-07-29T15:44:15;3.50;;;1.92;;
12816;SDS011;6473;51.552;6.716;2022-07-29T15:46:50;2.95;;;1.83;;